sensor_id;sensor_type;location;lat;lon;timestamp;P1;durP1;ratioP1;P2;durP2;ratioP2
44832;SDS011;30569;51.252;9.830;2022-07-29T00:01:50;9.88;;;1.63;;
44832;SDS011;30569;51.252;9.830;2022-07-29T00:04:17;6.53;;;1.77;;
44832;SDS011;30569;51.252;9.830;2022-07-29T00:06:43;8.82;;;1.75;;
44832;SDS011;30569;51.252;9.830;2022-07-29T00:09:09;9.13;;;1.55;;
44832;SDS011;30569;51.252;9.830;2022-07-29T00:11:35;7.97;;;1.67;;
44832;SDS011;30569;51.252;9.830;2022-07-29T00:14:00;8.23;;;1.77;;
44832;SDS011;30569;51.252;9.830;2022-07-29T00:16:26;6.53;;;2.20;;
44832;SDS011;30569;51.252;9.830;2022-07-29T00:18:51;5.28;;;1.35;;
44832;SDS011;30569;51.252;9.830;2022-07-29T00:21:17;8.77;;;1.63;;
44832;SDS011;30569;51.252;9.830;2022-07-29T00:23:42;5.10;;;1.58;;
44832;SDS011;30569;51.252;9.830;2022-07-29T00:26:08;7.55;;;1.67;;
44832;SDS011;30569;51.252;9.830;2022-07-29T00:28:34;6.53;;;1.52;;
44832;SDS011;30569;51.252;9.830;2022-07-29T00:30:59;5.43;;;1.70;;
44832;SDS011;30569;51.252;9.830;2022-07-29T00:33:25;5.47;;;1.48;;
44832;SDS011;30569;51.252;9.830;2022-07-29T00:35:51;6.07;;;1.50;;
44832;SDS011;30569;51.252;9.830;2022-07-29T00:38:17;3.80;;;1.48;;
44832;SDS011;30569;51.252;9.830;2022-07-29T00:40:43;9.32;;;1.80;;
44832;SDS011;30569;51.252;9.830;2022-07-29T00:43:10;6.75;;;1.70;;
44832;SDS011;30569;51.252;9.830;2022-07-29T00:45:36;4.82;;;1.38;;
44832;SDS011;30569;51.252;9.830;2022-07-29T00:48:02;5.55;;;1.58;;
44832;SDS011;30569;51.252;9.830;2022-07-29T00:50:29;6.70;;;1.52;;
44832;SDS011;30569;51.252;9.830;2022-07-29T00:52:56;11.35;;;1.33;;
44832;SDS011;30569;51.252;9.830;2022-07-29T00:55:21;4.50;;;1.70;;
44832;SDS011;30569;51.252;9.830;2022-07-29T00:57:47;4.63;;;1.40;;
44832;SDS011;30569;51.252;9.830;2022-07-29T01:00:15;4.95;;;1.33;;
44832;SDS011;30569;51.252;9.830;2022-07-29T01:02:46;5.70;;;1.70;;
44832;SDS011;30569;51.252;9.830;2022-07-29T01:05:13;9.50;;;1.60;;
44832;SDS011;30569;51.252;9.830;2022-07-29T01:07:41;4.22;;;1.70;;
44832;SDS011;30569;51.252;9.830;2022-07-29T01:10:07;5.25;;;1.40;;
44832;SDS011;30569;51.252;9.830;2022-07-29T01:12:35;3.97;;;1.40;;
44832;SDS011;30569;51.252;9.830;2022-07-29T01:15:03;7.20;;;1.50;;
44832;SDS011;30569;51.252;9.830;2022-07-29T01:17:36;6.63;;;1.30;;
44832;SDS011;30569;51.252;9.830;2022-07-29T01:20:15;6.93;;;1.83;;
44832;SDS011;30569;51.252;9.830;2022-07-29T01:28:17;5.28;;;1.35;;
44832;SDS011;30569;51.252;9.830;2022-07-29T01:31:05;5.68;;;1.40;;
44832;SDS011;30569;51.252;9.830;2022-07-29T01:33:35;5.85;;;1.60;;
44832;SDS011;30569;51.252;9.830;2022-07-29T01:36:23;10.32;;;1.85;;
44832;SDS011;30569;51.252;9.830;2022-07-29T01:39:39;6.68;;;1.48;;
44832;SDS011;30569;51.252;9.830;2022-07-29T01:42:02;6.32;;;1.52;;
44832;SDS011;30569;51.252;9.830;2022-07-29T01:44:33;11.80;;;1.55;;
44832;SDS011;30569;51.252;9.830;2022-07-29T01:47:05;5.72;;;1.67;;
44832;SDS011;30569;51.252;9.830;2022-07-29T01:49:36;4.22;;;1.40;;
44832;SDS011;30569;51.252;9.830;2022-07-29T01:52:09;6.75;;;1.60;;
44832;SDS011;30569;51.252;9.830;2022-07-29T01:54:45;3.95;;;1.45;;
44832;SDS011;30569;51.252;9.830;2022-07-29T01:57:19;5.22;;;1.52;;
44832;SDS011;30569;51.252;9.830;2022-07-29T01:59:49;4.90;;;1.55;;
44832;SDS011;30569;51.252;9.830;2022-07-29T02:02:16;6.80;;;1.73;;
44832;SDS011;30569;51.252;9.830;2022-07-29T02:04:44;6.97;;;1.67;;
44832;SDS011;30569;51.252;9.830;2022-07-29T02:07:13;6.78;;;1.70;;
44832;SDS011;30569;51.252;9.830;2022-07-29T02:09:42;6.53;;;1.50;;
44832;SDS011;30569;51.252;9.830;2022-07-29T02:12:10;6.07;;;1.77;;
44832;SDS011;30569;51.252;9.830;2022-07-29T02:14:38;6.70;;;2.25;;
44832;SDS011;30569;51.252;9.830;2022-07-29T02:17:07;6.03;;;1.65;;
44832;SDS011;30569;51.252;9.830;2022-07-29T02:19:34;4.80;;;1.45;;
44832;SDS011;30569;51.252;9.830;2022-07-29T02:22:02;5.43;;;1.65;;
44832;SDS011;30569;51.252;9.830;2022-07-29T02:24:30;5.93;;;1.55;;
44832;SDS011;30569;51.252;9.830;2022-07-29T02:26:57;7.45;;;1.63;;
44832;SDS011;30569;51.252;9.830;2022-07-29T02:29:25;7.38;;;1.70;;
44832;SDS011;30569;51.252;9.830;2022-07-29T02:31:51;7.25;;;1.70;;
44832;SDS011;30569;51.252;9.830;2022-07-29T02:34:19;6.90;;;1.75;;
44832;SDS011;30569;51.252;9.830;2022-07-29T02:36:46;5.57;;;1.50;;
44832;SDS011;30569;51.252;9.830;2022-07-29T02:39:12;5.60;;;1.70;;
44832;SDS011;30569;51.252;9.830;2022-07-29T02:41:47;6.18;;;1.60;;
44832;SDS011;30569;51.252;9.830;2022-07-29T02:44:15;4.30;;;1.50;;
44832;SDS011;30569;51.252;9.830;2022-07-29T02:46:45;7.85;;;1.90;;
44832;SDS011;30569;51.252;9.830;2022-07-29T02:49:16;5.78;;;1.60;;
44832;SDS011;30569;51.252;9.830;2022-07-29T02:54:35;6.63;;;1.70;;
44832;SDS011;30569;51.252;9.830;2022-07-29T02:57:41;6.07;;;1.60;;
44832;SDS011;30569;51.252;9.830;2022-07-29T03:00:12;6.43;;;2.85;;
44832;SDS011;30569;51.252;9.830;2022-07-29T03:02:42;9.02;;;1.80;;
44832;SDS011;30569;51.252;9.830;2022-07-29T03:05:15;6.55;;;1.60;;
44832;SDS011;30569;51.252;9.830;2022-07-29T03:07:49;5.68;;;1.70;;
44832;SDS011;30569;51.252;9.830;2022-07-29T03:10:19;7.22;;;1.60;;
44832;SDS011;30569;51.252;9.830;2022-07-29T03:12:45;6.45;;;1.45;;
44832;SDS011;30569;51.252;9.830;2022-07-29T03:15:13;7.22;;;1.60;;
44832;SDS011;30569;51.252;9.830;2022-07-29T03:17:39;8.82;;;1.98;;
44832;SDS011;30569;51.252;9.830;2022-07-29T03:20:06;5.97;;;1.63;;
44832;SDS011;30569;51.252;9.830;2022-07-29T03:22:32;5.68;;;1.45;;
44832;SDS011;30569;51.252;9.830;2022-07-29T03:25:10;7.28;;;1.80;;
44832;SDS011;30569;51.252;9.830;2022-07-29T03:27:36;7.03;;;1.67;;
44832;SDS011;30569;51.252;9.830;2022-07-29T03:30:02;5.22;;;1.40;;
44832;SDS011;30569;51.252;9.830;2022-07-29T03:32:28;9.13;;;1.95;;
44832;SDS011;30569;51.252;9.830;2022-07-29T03:34:54;4.55;;;1.63;;
44832;SDS011;30569;51.252;9.830;2022-07-29T03:37:19;10.07;;;1.85;;
44832;SDS011;30569;51.252;9.830;2022-07-29T03:39:45;8.23;;;1.80;;
44832;SDS011;30569;51.252;9.830;2022-07-29T03:42:13;8.98;;;1.60;;
44832;SDS011;30569;51.252;9.830;2022-07-29T03:44:40;7.53;;;1.90;;
44832;SDS011;30569;51.252;9.830;2022-07-29T03:47:09;7.10;;;1.90;;
44832;SDS011;30569;51.252;9.830;2022-07-29T03:49:38;4.40;;;1.70;;
44832;SDS011;30569;51.252;9.830;2022-07-29T03:52:05;6.40;;;1.58;;
44832;SDS011;30569;51.252;9.830;2022-07-29T03:54:31;6.22;;;1.58;;
44832;SDS011;30569;51.252;9.830;2022-07-29T03:56:57;6.72;;;1.80;;
44832;SDS011;30569;51.252;9.830;2022-07-29T03:59:25;7.22;;;2.05;;
44832;SDS011;30569;51.252;9.830;2022-07-29T04:01:52;6.13;;;1.60;;
44832;SDS011;30569;51.252;9.830;2022-07-29T04:04:20;6.10;;;1.70;;
44832;SDS011;30569;51.252;9.830;2022-07-29T04:06:46;5.28;;;1.58;;
44832;SDS011;30569;51.252;9.830;2022-07-29T04:09:12;6.25;;;1.90;;
44832;SDS011;30569;51.252;9.830;2022-07-29T04:11:38;6.55;;;1.95;;
44832;SDS011;30569;51.252;9.830;2022-07-29T04:14:05;6.85;;;2.03;;
44832;SDS011;30569;51.252;9.830;2022-07-29T04:16:31;6.55;;;1.63;;
44832;SDS011;30569;51.252;9.830;2022-07-29T04:18:57;4.97;;;1.65;;
44832;SDS011;30569;51.252;9.830;2022-07-29T04:21:23;7.07;;;1.75;;
44832;SDS011;30569;51.252;9.830;2022-07-29T04:23:49;5.85;;;1.67;;
44832;SDS011;30569;51.252;9.830;2022-07-29T04:26:19;9.07;;;1.70;;
44832;SDS011;30569;51.252;9.830;2022-07-29T04:28:45;4.75;;;2.00;;
44832;SDS011;30569;51.252;9.830;2022-07-29T04:31:11;8.00;;;1.85;;
44832;SDS011;30569;51.252;9.830;2022-07-29T04:33:38;7.97;;;2.10;;
44832;SDS011;30569;51.252;9.830;2022-07-29T04:36:04;6.88;;;1.60;;
44832;SDS011;30569;51.252;9.830;2022-07-29T04:38:30;4.95;;;1.85;;
44832;SDS011;30569;51.252;9.830;2022-07-29T04:40:55;5.80;;;1.60;;
44832;SDS011;30569;51.252;9.830;2022-07-29T04:43:21;4.82;;;1.50;;
44832;SDS011;30569;51.252;9.830;2022-07-29T04:45:47;5.55;;;2.10;;
44832;SDS011;30569;51.252;9.830;2022-07-29T04:48:12;4.82;;;2.13;;
44832;SDS011;30569;51.252;9.830;2022-07-29T04:50:38;5.93;;;1.83;;
44832;SDS011;30569;51.252;9.830;2022-07-29T04:53:04;4.68;;;1.73;;
44832;SDS011;30569;51.252;9.830;2022-07-29T04:55:30;4.70;;;1.60;;
44832;SDS011;30569;51.252;9.830;2022-07-29T04:57:56;6.00;;;1.42;;
44832;SDS011;30569;51.252;9.830;2022-07-29T05:00:22;5.97;;;1.58;;
44832;SDS011;30569;51.252;9.830;2022-07-29T05:02:48;4.53;;;1.58;;
44832;SDS011;30569;51.252;9.830;2022-07-29T05:05:14;6.25;;;2.05;;
44832;SDS011;30569;51.252;9.830;2022-07-29T05:07:40;5.30;;;1.70;;
44832;SDS011;30569;51.252;9.830;2022-07-29T05:10:06;8.75;;;1.85;;
44832;SDS011;30569;51.252;9.830;2022-07-29T05:12:32;7.65;;;1.70;;
44832;SDS011;30569;51.252;9.830;2022-07-29T05:14:57;7.63;;;1.77;;
44832;SDS011;30569;51.252;9.830;2022-07-29T05:17:23;7.05;;;1.58;;
44832;SDS011;30569;51.252;9.830;2022-07-29T05:19:49;6.10;;;1.65;;
44832;SDS011;30569;51.252;9.830;2022-07-29T05:22:16;5.68;;;1.40;;
44832;SDS011;30569;51.252;9.830;2022-07-29T05:24:42;4.90;;;1.65;;
44832;SDS011;30569;51.252;9.830;2022-07-29T05:27:08;8.65;;;1.83;;
44832;SDS011;30569;51.252;9.830;2022-07-29T05:29:34;11.10;;;1.52;;
44832;SDS011;30569;51.252;9.830;2022-07-29T05:32:00;6.32;;;1.50;;
44832;SDS011;30569;51.252;9.830;2022-07-29T05:34:26;10.15;;;2.25;;
44832;SDS011;30569;51.252;9.830;2022-07-29T05:36:51;10.57;;;1.80;;
44832;SDS011;30569;51.252;9.830;2022-07-29T05:39:17;8.30;;;1.55;;
44832;SDS011;30569;51.252;9.830;2022-07-29T05:41:42;6.63;;;1.67;;
44832;SDS011;30569;51.252;9.830;2022-07-29T05:44:08;8.07;;;1.70;;
44832;SDS011;30569;51.252;9.830;2022-07-29T05:46:34;3.95;;;1.50;;
44832;SDS011;30569;51.252;9.830;2022-07-29T05:48:59;6.05;;;1.75;;
44832;SDS011;30569;51.252;9.830;2022-07-29T05:51:25;7.32;;;1.80;;
44832;SDS011;30569;51.252;9.830;2022-07-29T05:53:51;6.55;;;1.50;;
44832;SDS011;30569;51.252;9.830;2022-07-29T05:56:16;10.30;;;1.55;;
44832;SDS011;30569;51.252;9.830;2022-07-29T05:58:42;6.63;;;1.70;;
44832;SDS011;30569;51.252;9.830;2022-07-29T06:01:08;6.43;;;1.67;;
44832;SDS011;30569;51.252;9.830;2022-07-29T06:03:33;4.90;;;1.50;;
44832;SDS011;30569;51.252;9.830;2022-07-29T06:06:00;8.13;;;1.80;;
44832;SDS011;30569;51.252;9.830;2022-07-29T06:08:26;6.82;;;1.95;;
44832;SDS011;30569;51.252;9.830;2022-07-29T06:10:51;8.43;;;2.25;;
44832;SDS011;30569;51.252;9.830;2022-07-29T06:13:17;5.55;;;1.58;;
44832;SDS011;30569;51.252;9.830;2022-07-29T06:15:42;8.52;;;1.80;;
44832;SDS011;30569;51.252;9.830;2022-07-29T06:18:08;6.50;;;1.75;;
44832;SDS011;30569;51.252;9.830;2022-07-29T06:20:35;8.60;;;2.13;;
44832;SDS011;30569;51.252;9.830;2022-07-29T06:23:01;5.88;;;1.40;;
44832;SDS011;30569;51.252;9.830;2022-07-29T06:25:29;9.23;;;1.77;;
44832;SDS011;30569;51.252;9.830;2022-07-29T06:27:57;7.50;;;1.70;;
44832;SDS011;30569;51.252;9.830;2022-07-29T06:30:23;5.88;;;1.75;;
44832;SDS011;30569;51.252;9.830;2022-07-29T06:32:48;6.95;;;1.60;;
44832;SDS011;30569;51.252;9.830;2022-07-29T06:35:14;5.80;;;1.80;;
44832;SDS011;30569;51.252;9.830;2022-07-29T06:37:40;7.00;;;1.70;;
44832;SDS011;30569;51.252;9.830;2022-07-29T06:40:05;7.13;;;1.73;;
44832;SDS011;30569;51.252;9.830;2022-07-29T06:42:52;7.40;;;1.75;;
44832;SDS011;30569;51.252;9.830;2022-07-29T06:45:18;11.02;;;1.67;;
44832;SDS011;30569;51.252;9.830;2022-07-29T06:47:43;6.25;;;1.60;;
44832;SDS011;30569;51.252;9.830;2022-07-29T06:50:09;4.40;;;1.50;;
44832;SDS011;30569;51.252;9.830;2022-07-29T06:52:37;8.05;;;1.75;;
44832;SDS011;30569;51.252;9.830;2022-07-29T06:55:06;6.20;;;1.90;;
44832;SDS011;30569;51.252;9.830;2022-07-29T06:57:32;5.35;;;1.95;;
44832;SDS011;30569;51.252;9.830;2022-07-29T06:59:58;8.38;;;2.17;;
44832;SDS011;30569;51.252;9.830;2022-07-29T07:02:24;6.05;;;1.50;;
44832;SDS011;30569;51.252;9.830;2022-07-29T07:04:50;7.00;;;1.70;;
44832;SDS011;30569;51.252;9.830;2022-07-29T07:07:15;5.32;;;1.60;;
44832;SDS011;30569;51.252;9.830;2022-07-29T07:09:41;7.00;;;1.90;;
44832;SDS011;30569;51.252;9.830;2022-07-29T07:12:07;6.90;;;1.80;;
44832;SDS011;30569;51.252;9.830;2022-07-29T07:14:32;7.15;;;2.20;;
44832;SDS011;30569;51.252;9.830;2022-07-29T07:16:58;5.32;;;1.70;;
44832;SDS011;30569;51.252;9.830;2022-07-29T07:19:25;5.43;;;1.40;;
44832;SDS011;30569;51.252;9.830;2022-07-29T07:21:52;9.15;;;1.83;;
44832;SDS011;30569;51.252;9.830;2022-07-29T07:24:18;9.75;;;1.70;;
44832;SDS011;30569;51.252;9.830;2022-07-29T07:26:43;7.13;;;1.65;;
44832;SDS011;30569;51.252;9.830;2022-07-29T07:29:09;4.85;;;1.70;;
44832;SDS011;30569;51.252;9.830;2022-07-29T07:31:35;9.00;;;1.90;;
44832;SDS011;30569;51.252;9.830;2022-07-29T07:34:01;4.88;;;1.55;;
44832;SDS011;30569;51.252;9.830;2022-07-29T07:36:27;4.47;;;1.52;;
44832;SDS011;30569;51.252;9.830;2022-07-29T07:38:53;5.82;;;1.63;;
44832;SDS011;30569;51.252;9.830;2022-07-29T07:41:18;8.40;;;1.80;;
44832;SDS011;30569;51.252;9.830;2022-07-29T07:43:44;5.03;;;1.63;;
44832;SDS011;30569;51.252;9.830;2022-07-29T07:46:09;5.65;;;1.70;;
44832;SDS011;30569;51.252;9.830;2022-07-29T07:48:35;8.93;;;1.75;;
44832;SDS011;30569;51.252;9.830;2022-07-29T07:51:00;5.72;;;1.90;;
44832;SDS011;30569;51.252;9.830;2022-07-29T07:53:26;8.98;;;1.90;;
44832;SDS011;30569;51.252;9.830;2022-07-29T07:55:54;7.50;;;2.30;;
44832;SDS011;30569;51.252;9.830;2022-07-29T07:58:20;5.22;;;1.70;;
44832;SDS011;30569;51.252;9.830;2022-07-29T08:00:46;7.70;;;1.90;;
44832;SDS011;30569;51.252;9.830;2022-07-29T08:03:12;8.57;;;2.00;;
44832;SDS011;30569;51.252;9.830;2022-07-29T08:05:38;10.27;;;2.15;;
44832;SDS011;30569;51.252;9.830;2022-07-29T08:08:05;8.52;;;1.92;;
44832;SDS011;30569;51.252;9.830;2022-07-29T08:10:31;9.73;;;1.77;;
44832;SDS011;30569;51.252;9.830;2022-07-29T08:13:15;9.90;;;1.80;;
44832;SDS011;30569;51.252;9.830;2022-07-29T08:15:41;11.18;;;2.28;;
44832;SDS011;30569;51.252;9.830;2022-07-29T08:18:09;12.57;;;2.65;;
44832;SDS011;30569;51.252;9.830;2022-07-29T08:20:35;10.68;;;2.20;;
44832;SDS011;30569;51.252;9.830;2022-07-29T08:23:03;5.80;;;2.25;;
44832;SDS011;30569;51.252;9.830;2022-07-29T08:25:31;9.93;;;2.47;;
44832;SDS011;30569;51.252;9.830;2022-07-29T08:27:57;8.32;;;2.30;;
44832;SDS011;30569;51.252;9.830;2022-07-29T08:30:22;5.43;;;2.00;;
44832;SDS011;30569;51.252;9.830;2022-07-29T08:32:48;5.97;;;2.20;;
44832;SDS011;30569;51.252;9.830;2022-07-29T08:35:15;9.13;;;2.20;;
44832;SDS011;30569;51.252;9.830;2022-07-29T08:37:41;11.55;;;2.10;;
44832;SDS011;30569;51.252;9.830;2022-07-29T08:40:07;9.63;;;2.40;;
44832;SDS011;30569;51.252;9.830;2022-07-29T08:42:32;6.30;;;1.88;;
44832;SDS011;30569;51.252;9.830;2022-07-29T08:44:58;8.35;;;1.90;;
44832;SDS011;30569;51.252;9.830;2022-07-29T08:47:24;10.68;;;2.58;;
44832;SDS011;30569;51.252;9.830;2022-07-29T08:49:51;6.38;;;2.10;;
44832;SDS011;30569;51.252;9.830;2022-07-29T08:52:16;10.20;;;2.78;;
44832;SDS011;30569;51.252;9.830;2022-07-29T08:54:44;6.28;;;2.10;;
44832;SDS011;30569;51.252;9.830;2022-07-29T08:57:12;8.63;;;1.77;;
44832;SDS011;30569;51.252;9.830;2022-07-29T08:59:40;7.72;;;2.20;;
44832;SDS011;30569;51.252;9.830;2022-07-29T09:02:12;7.97;;;1.83;;
44832;SDS011;30569;51.252;9.830;2022-07-29T09:04:44;6.63;;;2.08;;
44832;SDS011;30569;51.252;9.830;2022-07-29T09:07:10;7.78;;;1.90;;
44832;SDS011;30569;51.252;9.830;2022-07-29T09:09:43;5.90;;;2.17;;
44832;SDS011;30569;51.252;9.830;2022-07-29T09:12:09;6.53;;;2.10;;
44832;SDS011;30569;51.252;9.830;2022-07-29T09:14:39;5.57;;;1.77;;
44832;SDS011;30569;51.252;9.830;2022-07-29T09:17:05;5.40;;;1.80;;
44832;SDS011;30569;51.252;9.830;2022-07-29T09:19:35;5.65;;;1.55;;
44832;SDS011;30569;51.252;9.830;2022-07-29T09:22:03;9.48;;;1.67;;
44832;SDS011;30569;51.252;9.830;2022-07-29T09:27:03;10.43;;;1.80;;
44832;SDS011;30569;51.252;9.830;2022-07-29T09:32:24;6.15;;;1.80;;
44832;SDS011;30569;51.252;9.830;2022-07-29T09:34:49;7.05;;;1.83;;
44832;SDS011;30569;51.252;9.830;2022-07-29T09:37:27;7.15;;;1.98;;
44832;SDS011;30569;51.252;9.830;2022-07-29T09:39:53;6.72;;;1.50;;
44832;SDS011;30569;51.252;9.830;2022-07-29T09:42:28;5.32;;;1.55;;
44832;SDS011;30569;51.252;9.830;2022-07-29T09:44:54;4.85;;;1.88;;
44832;SDS011;30569;51.252;9.830;2022-07-29T09:47:20;4.75;;;1.75;;
44832;SDS011;30569;51.252;9.830;2022-07-29T09:52:16;6.82;;;1.77;;
44832;SDS011;30569;51.252;9.830;2022-07-29T09:54:42;7.65;;;1.85;;
44832;SDS011;30569;51.252;9.830;2022-07-29T09:57:08;6.70;;;1.60;;
44832;SDS011;30569;51.252;9.830;2022-07-29T09:59:55;6.28;;;1.65;;
44832;SDS011;30569;51.252;9.830;2022-07-29T10:02:22;7.63;;;1.80;;
44832;SDS011;30569;51.252;9.830;2022-07-29T10:04:52;7.57;;;1.90;;
44832;SDS011;30569;51.252;9.830;2022-07-29T10:07:17;4.63;;;1.67;;
44832;SDS011;30569;51.252;9.830;2022-07-29T10:09:55;7.00;;;1.70;;
44832;SDS011;30569;51.252;9.830;2022-07-29T10:12:22;9.50;;;1.92;;
44832;SDS011;30569;51.252;9.830;2022-07-29T10:14:48;8.48;;;1.58;;
44832;SDS011;30569;51.252;9.830;2022-07-29T10:17:14;6.72;;;2.10;;
44832;SDS011;30569;51.252;9.830;2022-07-29T10:19:40;5.93;;;1.75;;
44832;SDS011;30569;51.252;9.830;2022-07-29T10:22:08;6.63;;;1.73;;
44832;SDS011;30569;51.252;9.830;2022-07-29T10:24:35;8.85;;;1.90;;
44832;SDS011;30569;51.252;9.830;2022-07-29T10:27:05;8.13;;;2.17;;
44832;SDS011;30569;51.252;9.830;2022-07-29T10:29:32;9.27;;;1.90;;
44832;SDS011;30569;51.252;9.830;2022-07-29T10:32:15;5.85;;;1.67;;
44832;SDS011;30569;51.252;9.830;2022-07-29T10:35:08;10.98;;;1.95;;
44832;SDS011;30569;51.252;9.830;2022-07-29T10:43:17;10.75;;;2.00;;
44832;SDS011;30569;51.252;9.830;2022-07-29T10:45:47;7.95;;;2.25;;
44832;SDS011;30569;51.252;9.830;2022-07-29T10:48:14;8.20;;;1.85;;
44832;SDS011;30569;51.252;9.830;2022-07-29T10:50:53;4.60;;;1.75;;
44832;SDS011;30569;51.252;9.830;2022-07-29T10:56:31;10.48;;;1.70;;
44832;SDS011;30569;51.252;9.830;2022-07-29T11:01:45;6.68;;;2.20;;
44832;SDS011;30569;51.252;9.830;2022-07-29T11:07:11;10.88;;;1.83;;
44832;SDS011;30569;51.252;9.830;2022-07-29T11:09:37;7.78;;;2.00;;
44832;SDS011;30569;51.252;9.830;2022-07-29T11:12:04;6.07;;;1.65;;
44832;SDS011;30569;51.252;9.830;2022-07-29T11:14:59;9.30;;;1.90;;
44832;SDS011;30569;51.252;9.830;2022-07-29T11:17:27;7.40;;;1.63;;
44832;SDS011;30569;51.252;9.830;2022-07-29T11:22:55;6.30;;;1.92;;
44832;SDS011;30569;51.252;9.830;2022-07-29T11:25:21;12.20;;;2.60;;
44832;SDS011;30569;51.252;9.830;2022-07-29T11:27:47;8.57;;;2.15;;
44832;SDS011;30569;51.252;9.830;2022-07-29T11:30:13;8.70;;;2.28;;
44832;SDS011;30569;51.252;9.830;2022-07-29T11:32:42;4.82;;;1.95;;
44832;SDS011;30569;51.252;9.830;2022-07-29T11:35:16;10.45;;;2.30;;
44832;SDS011;30569;51.252;9.830;2022-07-29T11:43:46;5.97;;;2.00;;
44832;SDS011;30569;51.252;9.830;2022-07-29T11:46:12;6.88;;;2.08;;
44832;SDS011;30569;51.252;9.830;2022-07-29T11:48:42;8.55;;;2.10;;
44832;SDS011;30569;51.252;9.830;2022-07-29T11:51:11;7.57;;;2.03;;
44832;SDS011;30569;51.252;9.830;2022-07-29T11:53:37;7.80;;;2.20;;
44832;SDS011;30569;51.252;9.830;2022-07-29T11:56:04;6.95;;;1.85;;
44832;SDS011;30569;51.252;9.830;2022-07-29T11:58:33;8.50;;;2.20;;
44832;SDS011;30569;51.252;9.830;2022-07-29T12:00:59;8.55;;;2.13;;
44832;SDS011;30569;51.252;9.830;2022-07-29T12:03:26;6.15;;;2.17;;
44832;SDS011;30569;51.252;9.830;2022-07-29T12:05:53;6.25;;;1.80;;
44832;SDS011;30569;51.252;9.830;2022-07-29T12:08:19;9.10;;;2.08;;
44832;SDS011;30569;51.252;9.830;2022-07-29T12:10:47;6.78;;;2.17;;
44832;SDS011;30569;51.252;9.830;2022-07-29T12:13:15;7.57;;;2.28;;
44832;SDS011;30569;51.252;9.830;2022-07-29T12:15:50;9.20;;;2.08;;
44832;SDS011;30569;51.252;9.830;2022-07-29T12:18:18;9.23;;;2.30;;
44832;SDS011;30569;51.252;9.830;2022-07-29T12:20:45;7.53;;;2.05;;
44832;SDS011;30569;51.252;9.830;2022-07-29T12:23:12;4.55;;;1.83;;
44832;SDS011;30569;51.252;9.830;2022-07-29T12:25:39;9.43;;;2.15;;
44832;SDS011;30569;51.252;9.830;2022-07-29T12:28:07;6.35;;;1.98;;
44832;SDS011;30569;51.252;9.830;2022-07-29T12:33:12;9.25;;;2.20;;
44832;SDS011;30569;51.252;9.830;2022-07-29T12:35:42;6.45;;;2.13;;
44832;SDS011;30569;51.252;9.830;2022-07-29T12:38:10;7.35;;;2.53;;
44832;SDS011;30569;51.252;9.830;2022-07-29T12:40:37;7.53;;;2.42;;
44832;SDS011;30569;51.252;9.830;2022-07-29T12:43:07;7.68;;;2.40;;
44832;SDS011;30569;51.252;9.830;2022-07-29T12:45:38;7.53;;;2.55;;
44832;SDS011;30569;51.252;9.830;2022-07-29T12:48:05;8.32;;;2.13;;
44832;SDS011;30569;51.252;9.830;2022-07-29T12:50:33;8.00;;;1.98;;
44832;SDS011;30569;51.252;9.830;2022-07-29T12:53:13;12.32;;;2.35;;
44832;SDS011;30569;51.252;9.830;2022-07-29T12:55:46;5.70;;;2.33;;
44832;SDS011;30569;51.252;9.830;2022-07-29T12:58:35;5.72;;;2.10;;
44832;SDS011;30569;51.252;9.830;2022-07-29T13:01:06;6.88;;;2.22;;
44832;SDS011;30569;51.252;9.830;2022-07-29T13:03:47;7.85;;;2.00;;
44832;SDS011;30569;51.252;9.830;2022-07-29T13:11:45;6.05;;;2.20;;
44832;SDS011;30569;51.252;9.830;2022-07-29T13:14:14;5.47;;;2.20;;
44832;SDS011;30569;51.252;9.830;2022-07-29T13:17:06;5.22;;;2.00;;
44832;SDS011;30569;51.252;9.830;2022-07-29T13:22:01;5.00;;;2.15;;
44832;SDS011;30569;51.252;9.830;2022-07-29T13:24:27;5.63;;;2.05;;
44832;SDS011;30569;51.252;9.830;2022-07-29T13:26:53;11.10;;;2.30;;
44832;SDS011;30569;51.252;9.830;2022-07-29T13:29:18;5.35;;;2.20;;
44832;SDS011;30569;51.252;9.830;2022-07-29T13:31:44;9.35;;;2.47;;
44832;SDS011;30569;51.252;9.830;2022-07-29T13:34:09;7.68;;;2.78;;
44832;SDS011;30569;51.252;9.830;2022-07-29T13:36:35;6.80;;;2.15;;
44832;SDS011;30569;51.252;9.830;2022-07-29T13:39:01;6.32;;;2.00;;
44832;SDS011;30569;51.252;9.830;2022-07-29T13:41:27;5.55;;;2.20;;
44832;SDS011;30569;51.252;9.830;2022-07-29T13:43:53;12.20;;;2.38;;
44832;SDS011;30569;51.252;9.830;2022-07-29T13:46:19;5.43;;;2.15;;
44832;SDS011;30569;51.252;9.830;2022-07-29T13:48:45;9.45;;;2.50;;
44832;SDS011;30569;51.252;9.830;2022-07-29T13:51:10;9.50;;;2.30;;
44832;SDS011;30569;51.252;9.830;2022-07-29T13:53:36;14.07;;;2.35;;
44832;SDS011;30569;51.252;9.830;2022-07-29T13:56:01;6.22;;;2.20;;
44832;SDS011;30569;51.252;9.830;2022-07-29T13:58:27;7.60;;;2.20;;
44832;SDS011;30569;51.252;9.830;2022-07-29T14:00:52;6.68;;;2.40;;
44832;SDS011;30569;51.252;9.830;2022-07-29T14:03:18;9.20;;;2.28;;
44832;SDS011;30569;51.252;9.830;2022-07-29T14:05:43;6.80;;;2.30;;
44832;SDS011;30569;51.252;9.830;2022-07-29T14:08:09;6.95;;;2.20;;
44832;SDS011;30569;51.252;9.830;2022-07-29T14:10:35;8.07;;;2.03;;
44832;SDS011;30569;51.252;9.830;2022-07-29T14:13:00;8.15;;;2.42;;
44832;SDS011;30569;51.252;9.830;2022-07-29T14:15:26;7.68;;;2.45;;
44832;SDS011;30569;51.252;9.830;2022-07-29T14:17:51;8.20;;;2.08;;
44832;SDS011;30569;51.252;9.830;2022-07-29T14:20:17;7.40;;;2.00;;
44832;SDS011;30569;51.252;9.830;2022-07-29T14:22:42;7.07;;;2.60;;
44832;SDS011;30569;51.252;9.830;2022-07-29T14:25:08;7.85;;;2.25;;
44832;SDS011;30569;51.252;9.830;2022-07-29T14:27:34;6.88;;;2.30;;
44832;SDS011;30569;51.252;9.830;2022-07-29T14:29:59;10.80;;;2.58;;
44832;SDS011;30569;51.252;9.830;2022-07-29T14:32:25;5.63;;;2.03;;
44832;SDS011;30569;51.252;9.830;2022-07-29T14:34:50;9.13;;;2.22;;
44832;SDS011;30569;51.252;9.830;2022-07-29T14:37:16;6.50;;;2.42;;
44832;SDS011;30569;51.252;9.830;2022-07-29T14:39:42;6.78;;;2.40;;
44832;SDS011;30569;51.252;9.830;2022-07-29T14:42:07;9.20;;;2.28;;
44832;SDS011;30569;51.252;9.830;2022-07-29T14:44:33;7.30;;;2.05;;
44832;SDS011;30569;51.252;9.830;2022-07-29T14:46:59;9.80;;;3.13;;
44832;SDS011;30569;51.252;9.830;2022-07-29T14:49:25;6.50;;;2.13;;
44832;SDS011;30569;51.252;9.830;2022-07-29T14:51:51;6.18;;;2.38;;
44832;SDS011;30569;51.252;9.830;2022-07-29T14:54:17;7.43;;;3.22;;
44832;SDS011;30569;51.252;9.830;2022-07-29T14:56:43;8.88;;;2.55;;
44832;SDS011;30569;51.252;9.830;2022-07-29T14:59:08;7.38;;;2.13;;
44832;SDS011;30569;51.252;9.830;2022-07-29T15:01:34;10.35;;;2.13;;
44832;SDS011;30569;51.252;9.830;2022-07-29T15:03:59;9.18;;;2.20;;
44832;SDS011;30569;51.252;9.830;2022-07-29T15:06:25;7.47;;;2.47;;
44832;SDS011;30569;51.252;9.830;2022-07-29T15:08:51;7.25;;;2.40;;
44832;SDS011;30569;51.252;9.830;2022-07-29T15:11:17;7.68;;;2.40;;
44832;SDS011;30569;51.252;9.830;2022-07-29T15:13:42;11.95;;;2.58;;
44832;SDS011;30569;51.252;9.830;2022-07-29T15:16:08;8.00;;;2.47;;
44832;SDS011;30569;51.252;9.830;2022-07-29T15:18:34;9.20;;;2.38;;
44832;SDS011;30569;51.252;9.830;2022-07-29T15:21:00;9.57;;;2.45;;
44832;SDS011;30569;51.252;9.830;2022-07-29T15:23:27;7.28;;;2.55;;
44832;SDS011;30569;51.252;9.830;2022-07-29T15:25:53;11.80;;;2.50;;
44832;SDS011;30569;51.252;9.830;2022-07-29T15:28:18;9.27;;;2.25;;
44832;SDS011;30569;51.252;9.830;2022-07-29T15:30:44;10.77;;;2.45;;
44832;SDS011;30569;51.252;9.830;2022-07-29T15:33:09;8.45;;;2.30;;
44832;SDS011;30569;51.252;9.830;2022-07-29T15:35:35;5.47;;;1.92;;
44832;SDS011;30569;51.252;9.830;2022-07-29T15:38:01;7.32;;;2.40;;
44832;SDS011;30569;51.252;9.830;2022-07-29T15:40:27;6.25;;;2.22;;